sensor_id;sensor_type;location;lat;lon;timestamp;pressure;altitude;pressure_sealevel;temperature;humidity
77823;BME280;67013;49.730;17.292;2023-03-31T00:01:43;97772.34;;;8.71;77.58
77823;BME280;67013;49.730;17.292;2023-03-31T00:04:13;97767.77;;;8.69;77.66
77823;BME280;67013;49.730;17.292;2023-03-31T00:06:42;97765.84;;;8.67;77.76
77823;BME280;67013;49.730;17.292;2023-03-31T00:09:13;97760.32;;;8.65;77.51
77823;BME280;67013;49.730;17.292;2023-03-31T00:11:46;97763.20;;;8.63;77.52
77823;BME280;67013;49.730;17.292;2023-03-31T00:14:16;97763.95;;;8.60;77.33
77823;BME280;67013;49.730;17.292;2023-03-31T00:16:46;97765.55;;;8.55;77.41
77823;BME280;67013;49.730;17.292;2023-03-31T00:19:16;97768.32;;;8.50;77.43
77823;BME280;67013;49.730;17.292;2023-03-31T00:21:49;97766.91;;;8.46;77.44
77823;BME280;67013;49.730;17.292;2023-03-31T00:24:18;97766.23;;;8.41;77.58
77823;BME280;67013;49.730;17.292;2023-03-31T00:26:48;97767.98;;;8.36;77.47
77823;BME280;67013;49.730;17.292;2023-03-31T00:29:17;97770.25;;;8.31;77.55
77823;BME280;67013;49.730;17.292;2023-03-31T00:31:47;97775.09;;;8.26;77.64
77823;BME280;67013;49.730;17.292;2023-03-31T00:34:16;97778.27;;;8.23;77.42
77823;BME280;67013;49.730;17.292;2023-03-31T00:36:46;97779.20;;;8.20;77.50
77823;BME280;67013;49.730;17.292;2023-03-31T00:39:17;97780.33;;;8.19;77.54
77823;BME280;67013;49.730;17.292;2023-03-31T00:41:47;97778.52;;;8.15;77.66
77823;BME280;67013;49.730;17.292;2023-03-31T00:44:18;97780.38;;;8.11;77.50
77823;BME280;67013;49.730;17.292;2023-03-31T00:46:53;97783.77;;;8.07;77.83
77823;BME280;67013;49.730;17.292;2023-03-31T00:49:27;97776.95;;;8.03;77.94
77823;BME280;67013;49.730;17.292;2023-03-31T00:52:02;97772.39;;;7.99;77.91
77823;BME280;67013;49.730;17.292;2023-03-31T00:54:34;97772.27;;;7.94;78.02
77823;BME280;67013;49.730;17.292;2023-03-31T00:57:05;97766.98;;;7.90;78.13
77823;BME280;67013;49.730;17.292;2023-03-31T00:59:38;97760.02;;;7.89;78.02
77823;BME280;67013;49.730;17.292;2023-03-31T01:02:09;97755.27;;;7.87;78.32
77823;BME280;67013;49.730;17.292;2023-03-31T01:04:44;97759.75;;;7.85;78.27
77823;BME280;67013;49.730;17.292;2023-03-31T01:07:19;97760.58;;;7.84;78.43
77823;BME280;67013;49.730;17.292;2023-03-31T01:09:55;97756.02;;;7.84;78.59
77823;BME280;67013;49.730;17.292;2023-03-31T01:12:27;97757.35;;;7.85;78.62
77823;BME280;67013;49.730;17.292;2023-03-31T01:14:57;97756.88;;;7.85;78.49
77823;BME280;67013;49.730;17.292;2023-03-31T01:17:27;97750.69;;;7.84;78.31
77823;BME280;67013;49.730;17.292;2023-03-31T01:20:06;97747.20;;;7.84;78.32
77823;BME280;67013;49.730;17.292;2023-03-31T01:26:22;97738.13;;;7.87;78.57
77823;BME280;67013;49.730;17.292;2023-03-31T01:29:06;97730.32;;;7.88;78.43
77823;BME280;67013;49.730;17.292;2023-03-31T01:32:10;97731.66;;;7.88;78.31
77823;BME280;67013;49.730;17.292;2023-03-31T01:35:01;97733.36;;;7.86;78.24
77823;BME280;67013;49.730;17.292;2023-03-31T01:38:01;97740.61;;;7.82;78.24
77823;BME280;67013;49.730;17.292;2023-03-31T01:40:40;97736.92;;;7.80;78.24
77823;BME280;67013;49.730;17.292;2023-03-31T01:43:17;97734.29;;;7.78;78.31
77823;BME280;67013;49.730;17.292;2023-03-31T01:45:58;97733.35;;;7.74;78.25
77823;BME280;67013;49.730;17.292;2023-03-31T01:48:36;97731.00;;;7.71;78.11
77823;BME280;67013;49.730;17.292;2023-03-31T01:51:14;97729.08;;;7.69;78.64
77823;BME280;67013;49.730;17.292;2023-03-31T01:53:49;97724.63;;;7.70;79.05
77823;BME280;67013;49.730;17.292;2023-03-31T01:56:21;97720.71;;;7.74;78.86
77823;BME280;67013;49.730;17.292;2023-03-31T01:58:57;97715.25;;;7.78;78.92
77823;BME280;67013;49.730;17.292;2023-03-31T02:01:31;97712.38;;;7.79;78.62
77823;BME280;67013;49.730;17.292;2023-03-31T02:04:09;97713.81;;;7.78;78.61
77823;BME280;67013;49.730;17.292;2023-03-31T02:06:45;97709.90;;;7.77;78.54
77823;BME280;67013;49.730;17.292;2023-03-31T02:09:19;97708.05;;;7.74;78.47
77823;BME280;67013;49.730;17.292;2023-03-31T02:11:52;97706.13;;;7.70;78.19
77823;BME280;67013;49.730;17.292;2023-03-31T02:14:25;97707.86;;;7.65;78.35
77823;BME280;67013;49.730;17.292;2023-03-31T02:16:58;97708.74;;;7.60;78.47
77823;BME280;67013;49.730;17.292;2023-03-31T02:19:32;97711.27;;;7.54;78.58
77823;BME280;67013;49.730;17.292;2023-03-31T02:22:04;97699.09;;;7.50;78.64
77823;BME280;67013;49.730;17.292;2023-03-31T02:24:36;97694.83;;;7.47;78.64
77823;BME280;67013;49.730;17.292;2023-03-31T02:27:11;97689.23;;;7.45;78.60
77823;BME280;67013;49.730;17.292;2023-03-31T02:29:42;97684.70;;;7.43;78.67
77823;BME280;67013;49.730;17.292;2023-03-31T02:32:14;97684.98;;;7.42;78.58
77823;BME280;67013;49.730;17.292;2023-03-31T02:34:46;97685.13;;;7.40;78.87
77823;BME280;67013;49.730;17.292;2023-03-31T02:37:16;97679.67;;;7.36;78.78
77823;BME280;67013;49.730;17.292;2023-03-31T02:39:48;97679.30;;;7.32;78.53
77823;BME280;67013;49.730;17.292;2023-03-31T02:42:19;97673.38;;;7.25;78.53
77823;BME280;67013;49.730;17.292;2023-03-31T02:44:50;97673.16;;;7.18;78.42
77823;BME280;67013;49.730;17.292;2023-03-31T02:47:22;97673.29;;;7.14;78.50
77823;BME280;67013;49.730;17.292;2023-03-31T02:49:54;97674.70;;;7.14;78.66
77823;BME280;67013;49.730;17.292;2023-03-31T02:52:37;97675.27;;;7.18;79.05
77823;BME280;67013;49.730;17.292;2023-03-31T02:55:22;97673.54;;;7.23;78.94
77823;BME280;67013;49.730;17.292;2023-03-31T02:58:18;97667.23;;;7.26;78.85
77823;BME280;67013;49.730;17.292;2023-03-31T03:01:04;97659.29;;;7.26;78.77
77823;BME280;67013;49.730;17.292;2023-03-31T03:03:43;97651.74;;;7.23;78.33
77823;BME280;67013;49.730;17.292;2023-03-31T03:06:25;97650.90;;;7.18;78.58
77823;BME280;67013;49.730;17.292;2023-03-31T03:09:06;97654.40;;;7.13;78.43
77823;BME280;67013;49.730;17.292;2023-03-31T03:11:46;97655.22;;;7.05;78.53
77823;BME280;67013;49.730;17.292;2023-03-31T03:14:27;97648.84;;;7.00;78.70
77823;BME280;67013;49.730;17.292;2023-03-31T03:17:03;97649.27;;;6.97;78.45
77823;BME280;67013;49.730;17.292;2023-03-31T03:19:34;97647.23;;;6.94;78.50
77823;BME280;67013;49.730;17.292;2023-03-31T03:22:04;97644.79;;;6.92;78.68
77823;BME280;67013;49.730;17.292;2023-03-31T03:24:33;97643.30;;;6.91;78.33
77823;BME280;67013;49.730;17.292;2023-03-31T03:27:03;97644.73;;;6.90;78.49
77823;BME280;67013;49.730;17.292;2023-03-31T03:29:32;97642.05;;;6.89;78.69
77823;BME280;67013;49.730;17.292;2023-03-31T03:32:02;97640.98;;;6.87;78.36
77823;BME280;67013;49.730;17.292;2023-03-31T03:34:31;97644.93;;;6.82;78.35
77823;BME280;67013;49.730;17.292;2023-03-31T03:37:00;97642.85;;;6.78;78.69
77823;BME280;67013;49.730;17.292;2023-03-31T03:39:30;97640.91;;;6.73;78.75
77823;BME280;67013;49.730;17.292;2023-03-31T03:41:59;97642.72;;;6.72;79.18
77823;BME280;67013;49.730;17.292;2023-03-31T03:44:29;97643.88;;;6.72;78.92
77823;BME280;67013;49.730;17.292;2023-03-31T03:46:58;97643.23;;;6.77;78.98
77823;BME280;67013;49.730;17.292;2023-03-31T03:49:28;97636.60;;;6.83;79.32
77823;BME280;67013;49.730;17.292;2023-03-31T03:51:57;97636.24;;;6.90;79.47
77823;BME280;67013;49.730;17.292;2023-03-31T03:54:27;97639.44;;;6.99;79.70
77823;BME280;67013;49.730;17.292;2023-03-31T03:56:56;97636.53;;;7.05;79.65
77823;BME280;67013;49.730;17.292;2023-03-31T03:59:26;97638.46;;;7.11;79.63
77823;BME280;67013;49.730;17.292;2023-03-31T04:01:55;97638.71;;;7.09;79.10
77823;BME280;67013;49.730;17.292;2023-03-31T04:04:25;97634.05;;;7.09;79.03
77823;BME280;67013;49.730;17.292;2023-03-31T04:06:54;97631.49;;;7.11;78.96
77823;BME280;67013;49.730;17.292;2023-03-31T04:09:23;97628.89;;;7.16;78.88
77823;BME280;67013;49.730;17.292;2023-03-31T04:11:53;97623.75;;;7.23;79.03
77823;BME280;67013;49.730;17.292;2023-03-31T04:14:22;97617.77;;;7.31;79.09
77823;BME280;67013;49.730;17.292;2023-03-31T04:16:53;97617.84;;;7.38;79.24
77823;BME280;67013;49.730;17.292;2023-03-31T04:19:25;97615.55;;;7.42;79.12
77823;BME280;67013;49.730;17.292;2023-03-31T04:21:55;97611.50;;;7.49;78.84
77823;BME280;67013;49.730;17.292;2023-03-31T04:24:29;97605.82;;;7.53;78.83
77823;BME280;67013;49.730;17.292;2023-03-31T04:27:00;97603.02;;;7.56;78.90
77823;BME280;67013;49.730;17.292;2023-03-31T04:29:34;97603.20;;;7.58;78.72
77823;BME280;67013;49.730;17.292;2023-03-31T04:32:04;97593.92;;;7.61;78.71
77823;BME280;67013;49.730;17.292;2023-03-31T04:34:34;97592.67;;;7.67;78.65
77823;BME280;67013;49.730;17.292;2023-03-31T04:37:04;97592.84;;;7.71;78.70
77823;BME280;67013;49.730;17.292;2023-03-31T04:39:33;97595.75;;;7.76;78.43
77823;BME280;67013;49.730;17.292;2023-03-31T04:42:03;97601.92;;;7.80;78.48
77823;BME280;67013;49.730;17.292;2023-03-31T04:44:32;97603.55;;;7.82;78.46
77823;BME280;67013;49.730;17.292;2023-03-31T04:47:02;97610.17;;;7.83;78.41
77823;BME280;67013;49.730;17.292;2023-03-31T04:49:34;97610.23;;;7.87;78.54
77823;BME280;67013;49.730;17.292;2023-03-31T04:52:04;97608.86;;;7.91;78.56
77823;BME280;67013;49.730;17.292;2023-03-31T04:54:33;97604.68;;;7.96;78.40
77823;BME280;67013;49.730;17.292;2023-03-31T04:57:03;97607.80;;;8.03;78.24
77823;BME280;67013;49.730;17.292;2023-03-31T04:59:32;97608.04;;;8.09;78.32
77823;BME280;67013;49.730;17.292;2023-03-31T05:02:02;97606.55;;;8.13;78.10
77823;BME280;67013;49.730;17.292;2023-03-31T05:04:31;97606.61;;;8.17;78.12
77823;BME280;67013;49.730;17.292;2023-03-31T05:07:01;97606.42;;;8.19;78.17
77823;BME280;67013;49.730;17.292;2023-03-31T05:09:30;97605.52;;;8.22;78.17
77823;BME280;67013;49.730;17.292;2023-03-31T05:12:00;97607.66;;;8.23;77.93
77823;BME280;67013;49.730;17.292;2023-03-31T05:14:29;97598.52;;;8.23;77.98
77823;BME280;67013;49.730;17.292;2023-03-31T05:16:59;97594.61;;;8.17;77.93
77823;BME280;67013;49.730;17.292;2023-03-31T05:19:28;97594.27;;;8.15;77.81
77823;BME280;67013;49.730;17.292;2023-03-31T05:21:58;97591.02;;;8.15;77.84
77823;BME280;67013;49.730;17.292;2023-03-31T05:24:28;97592.02;;;8.10;77.78
77823;BME280;67013;49.730;17.292;2023-03-31T05:26:58;97598.85;;;8.09;77.77
77823;BME280;67013;49.730;17.292;2023-03-31T05:29:28;97598.85;;;8.14;77.94
77823;BME280;67013;49.730;17.292;2023-03-31T05:31:58;97594.84;;;8.30;77.65
77823;BME280;67013;49.730;17.292;2023-03-31T05:34:28;97585.74;;;8.50;77.54
77823;BME280;67013;49.730;17.292;2023-03-31T05:36:58;97588.45;;;8.75;76.92
77823;BME280;67013;49.730;17.292;2023-03-31T05:39:28;97582.75;;;8.92;76.30
77823;BME280;67013;49.730;17.292;2023-03-31T05:42:00;97582.96;;;8.94;76.08
77823;BME280;67013;49.730;17.292;2023-03-31T05:44:30;97582.11;;;8.94;76.02
77823;BME280;67013;49.730;17.292;2023-03-31T05:46:59;97578.91;;;9.01;75.91
77823;BME280;67013;49.730;17.292;2023-03-31T05:49:29;97577.74;;;9.05;75.35
77823;BME280;67013;49.730;17.292;2023-03-31T05:51:58;97566.95;;;8.99;75.40
77823;BME280;67013;49.730;17.292;2023-03-31T05:54:28;97562.05;;;9.02;75.45
77823;BME280;67013;49.730;17.292;2023-03-31T05:56:58;97555.80;;;9.21;75.46
77823;BME280;67013;49.730;17.292;2023-03-31T05:59:27;97557.33;;;9.56;74.87
77823;BME280;67013;49.730;17.292;2023-03-31T06:01:57;97551.91;;;9.94;74.44
77823;BME280;67013;49.730;17.292;2023-03-31T06:04:26;97547.84;;;10.20;73.74
77823;BME280;67013;49.730;17.292;2023-03-31T06:06:55;97542.98;;;10.26;72.69
77823;BME280;67013;49.730;17.292;2023-03-31T06:09:25;97543.96;;;10.26;72.62
77823;BME280;67013;49.730;17.292;2023-03-31T06:11:55;97542.92;;;10.36;72.06
77823;BME280;67013;49.730;17.292;2023-03-31T06:14:25;97534.66;;;10.49;71.51
77823;BME280;67013;49.730;17.292;2023-03-31T06:16:55;97534.46;;;10.78;71.37
77823;BME280;67013;49.730;17.292;2023-03-31T06:19:24;97532.11;;;11.18;71.04
77823;BME280;67013;49.730;17.292;2023-03-31T06:21:54;97529.90;;;11.54;70.39
77823;BME280;67013;49.730;17.292;2023-03-31T06:24:24;97520.70;;;11.87;70.06
77823;BME280;67013;49.730;17.292;2023-03-31T06:26:53;97519.41;;;12.01;68.44
77823;BME280;67013;49.730;17.292;2023-03-31T06:29:23;97515.47;;;11.87;67.56
77823;BME280;67013;49.730;17.292;2023-03-31T06:31:52;97521.80;;;11.71;68.01
77823;BME280;67013;49.730;17.292;2023-03-31T06:34:22;97538.02;;;11.59;67.85
77823;BME280;67013;49.730;17.292;2023-03-31T06:36:51;97553.87;;;11.51;67.91
77823;BME280;67013;49.730;17.292;2023-03-31T06:39:21;97551.45;;;11.36;67.55
77823;BME280;67013;49.730;17.292;2023-03-31T06:41:51;97544.58;;;11.19;67.90
77823;BME280;67013;49.730;17.292;2023-03-31T06:44:20;97539.55;;;11.17;67.80
77823;BME280;67013;49.730;17.292;2023-03-31T06:46:51;97527.46;;;11.08;68.02
77823;BME280;67013;49.730;17.292;2023-03-31T06:49:22;97523.75;;;11.16;68.11
77823;BME280;67013;49.730;17.292;2023-03-31T06:51:51;97516.64;;;11.45;67.97
77823;BME280;67013;49.730;17.292;2023-03-31T06:54:21;97512.88;;;11.58;67.58
77823;BME280;67013;49.730;17.292;2023-03-31T06:56:50;97521.48;;;11.73;67.38
77823;BME280;67013;49.730;17.292;2023-03-31T06:59:19;97526.48;;;12.00;66.75
77823;BME280;67013;49.730;17.292;2023-03-31T07:01:49;97524.14;;;12.12;66.68
77823;BME280;67013;49.730;17.292;2023-03-31T07:04:18;97529.43;;;12.28;66.20
77823;BME280;67013;49.730;17.292;2023-03-31T07:06:48;97532.64;;;12.49;65.58
77823;BME280;67013;49.730;17.292;2023-03-31T07:09:17;97536.54;;;12.82;64.34
77823;BME280;67013;49.730;17.292;2023-03-31T07:11:48;97539.23;;;12.90;64.30
77823;BME280;67013;49.730;17.292;2023-03-31T07:14:18;97536.60;;;12.95;63.93
77823;BME280;67013;49.730;17.292;2023-03-31T07:16:47;97537.35;;;12.95;63.24
77823;BME280;67013;49.730;17.292;2023-03-31T07:19:17;97534.36;;;12.71;63.15
77823;BME280;67013;49.730;17.292;2023-03-31T07:21:47;97531.23;;;12.36;63.30
77823;BME280;67013;49.730;17.292;2023-03-31T07:24:16;97517.20;;;12.10;64.61
77823;BME280;67013;49.730;17.292;2023-03-31T07:26:46;97509.98;;;12.14;64.58
77823;BME280;67013;49.730;17.292;2023-03-31T07:29:15;97502.41;;;12.10;64.87
77823;BME280;67013;49.730;17.292;2023-03-31T07:31:47;97490.14;;;11.97;65.50
77823;BME280;67013;49.730;17.292;2023-03-31T07:34:16;97479.39;;;11.72;65.96
77823;BME280;67013;49.730;17.292;2023-03-31T07:36:46;97468.21;;;11.46;66.68
77823;BME280;67013;49.730;17.292;2023-03-31T07:39:15;97463.84;;;11.44;67.10
77823;BME280;67013;49.730;17.292;2023-03-31T07:41:45;97461.23;;;11.36;67.05
77823;BME280;67013;49.730;17.292;2023-03-31T07:44:14;97468.21;;;11.38;67.66
77823;BME280;67013;49.730;17.292;2023-03-31T07:46:44;97469.09;;;11.66;67.36
77823;BME280;67013;49.730;17.292;2023-03-31T07:49:14;97469.25;;;12.26;66.20
77823;BME280;67013;49.730;17.292;2023-03-31T07:51:43;97461.14;;;12.53;64.77
77823;BME280;67013;49.730;17.292;2023-03-31T07:54:13;97461.36;;;12.56;64.41
77823;BME280;67013;49.730;17.292;2023-03-31T07:56:42;97461.23;;;12.54;64.53
77823;BME280;67013;49.730;17.292;2023-03-31T07:59:12;97455.20;;;12.51;64.53
77823;BME280;67013;49.730;17.292;2023-03-31T08:01:41;97450.29;;;12.77;64.44
77823;BME280;67013;49.730;17.292;2023-03-31T08:04:12;97441.73;;;13.45;63.11
77823;BME280;67013;49.730;17.292;2023-03-31T08:06:41;97439.03;;;14.00;60.57
77823;BME280;67013;49.730;17.292;2023-03-31T08:09:10;97439.20;;;14.83;58.66
77823;BME280;67013;49.730;17.292;2023-03-31T08:11:40;97442.50;;;15.92;57.12
77823;BME280;67013;49.730;17.292;2023-03-31T08:14:09;97445.20;;;16.92;54.54
77823;BME280;67013;49.730;17.292;2023-03-31T08:16:39;97446.70;;;17.55;53.98
77823;BME280;67013;49.730;17.292;2023-03-31T08:19:08;97439.25;;;18.75;51.93
77823;BME280;67013;49.730;17.292;2023-03-31T08:21:38;97436.51;;;19.66;50.38
77823;BME280;67013;49.730;17.292;2023-03-31T08:24:07;97438.05;;;20.40;47.47
77823;BME280;67013;49.730;17.292;2023-03-31T08:26:37;97437.33;;;21.13;45.42
77823;BME280;67013;49.730;17.292;2023-03-31T08:29:06;97435.75;;;21.31;44.61
77823;BME280;67013;49.730;17.292;2023-03-31T08:31:36;97425.66;;;21.15;43.90
77823;BME280;67013;49.730;17.292;2023-03-31T08:34:06;97420.44;;;20.80;44.32
77823;BME280;67013;49.730;17.292;2023-03-31T08:36:35;97414.25;;;20.62;43.61
77823;BME280;67013;49.730;17.292;2023-03-31T08:39:05;97405.10;;;20.02;44.16
77823;BME280;67013;49.730;17.292;2023-03-31T08:41:55;97396.07;;;19.38;45.07
77823;BME280;67013;49.730;17.292;2023-03-31T08:44:32;97397.30;;;19.40;44.69
77823;BME280;67013;49.730;17.292;2023-03-31T08:47:04;97390.92;;;20.96;43.86
77823;BME280;67013;49.730;17.292;2023-03-31T08:49:40;97382.50;;;22.85;39.61
77823;BME280;67013;49.730;17.292;2023-03-31T08:52:15;97384.06;;;23.86;36.47
77823;BME280;67013;49.730;17.292;2023-03-31T08:54:50;97377.82;;;23.68;36.71
77823;BME280;67013;49.730;17.292;2023-03-31T08:57:23;97373.35;;;23.47;38.38
77823;BME280;67013;49.730;17.292;2023-03-31T08:59:54;97369.17;;;23.71;37.64
77823;BME280;67013;49.730;17.292;2023-03-31T09:02:31;97367.86;;;23.53;37.44
77823;BME280;67013;49.730;17.292;2023-03-31T09:05:18;97361.15;;;23.20;38.10
77823;BME280;67013;49.730;17.292;2023-03-31T09:07:57;97359.30;;;22.99;38.37
77823;BME280;67013;49.730;17.292;2023-03-31T09:10:42;97354.92;;;23.80;37.79
77823;BME280;67013;49.730;17.292;2023-03-31T09:13:28;97355.67;;;24.44;37.29
77823;BME280;67013;49.730;17.292;2023-03-31T09:16:06;97359.21;;;24.28;36.74
77823;BME280;67013;49.730;17.292;2023-03-31T09:18:41;97347.83;;;23.57;37.04
77823;BME280;67013;49.730;17.292;2023-03-31T09:21:18;97352.00;;;22.23;39.06
77823;BME280;67013;49.730;17.292;2023-03-31T09:23:52;97355.04;;;20.93;41.44
77823;BME280;67013;49.730;17.292;2023-03-31T09:26:28;97356.70;;;19.76;43.22
77823;BME280;67013;49.730;17.292;2023-03-31T09:29:02;97351.70;;;18.87;45.51
77823;BME280;67013;49.730;17.292;2023-03-31T09:31:36;97344.67;;;18.06;47.50
77823;BME280;67013;49.730;17.292;2023-03-31T09:34:14;97343.52;;;17.39;48.95
77823;BME280;67013;49.730;17.292;2023-03-31T09:36:44;97338.55;;;16.77;50.65
77823;BME280;67013;49.730;17.292;2023-03-31T09:39:15;97339.10;;;16.28;52.31
77823;BME280;67013;49.730;17.292;2023-03-31T09:41:47;97339.77;;;15.89;53.65
77823;BME280;67013;49.730;17.292;2023-03-31T09:44:24;97328.69;;;15.58;54.89
77823;BME280;67013;49.730;17.292;2023-03-31T09:46:54;97321.48;;;15.44;55.70
77823;BME280;67013;49.730;17.292;2023-03-31T09:49:26;97318.30;;;15.37;55.89
77823;BME280;67013;49.730;17.292;2023-03-31T09:52:05;97316.48;;;15.29;56.45
77823;BME280;67013;49.730;17.292;2023-03-31T09:54:42;97312.30;;;15.16;56.63
77823;BME280;67013;49.730;17.292;2023-03-31T09:57:23;97311.87;;;15.02;57.41
77823;BME280;67013;49.730;17.292;2023-03-31T09:59:52;97302.33;;;14.98;57.21
77823;BME280;67013;49.730;17.292;2023-03-31T10:02:33;97304.50;;;14.92;57.66
77823;BME280;67013;49.730;17.292;2023-03-31T10:05:04;97300.42;;;14.86;58.05
77823;BME280;67013;49.730;17.292;2023-03-31T10:07:35;97297.77;;;14.73;58.16
77823;BME280;67013;49.730;17.292;2023-03-31T10:10:27;97290.55;;;14.62;58.50
77823;BME280;67013;49.730;17.292;2023-03-31T10:12:58;97282.38;;;14.49;59.20
77823;BME280;67013;49.730;17.292;2023-03-31T10:15:28;97276.83;;;14.40;59.83
77823;BME280;67013;49.730;17.292;2023-03-31T10:18:00;97273.75;;;14.36;59.82
77823;BME280;67013;49.730;17.292;2023-03-31T10:20:31;97263.35;;;14.34;60.12
77823;BME280;67013;49.730;17.292;2023-03-31T10:23:13;97259.70;;;14.33;60.42
77823;BME280;67013;49.730;17.292;2023-03-31T10:25:44;97248.93;;;14.26;60.87
77823;BME280;67013;49.730;17.292;2023-03-31T10:28:18;97246.54;;;14.26;61.44
77823;BME280;67013;49.730;17.292;2023-03-31T10:30:50;97247.79;;;14.29;61.60
77823;BME280;67013;49.730;17.292;2023-03-31T10:33:23;97240.30;;;14.40;61.33
77823;BME280;67013;49.730;17.292;2023-03-31T10:35:57;97232.23;;;14.55;61.01
77823;BME280;67013;49.730;17.292;2023-03-31T10:38:28;97225.73;;;14.71;61.14
77823;BME280;67013;49.730;17.292;2023-03-31T10:40:59;97216.23;;;14.76;60.48
77823;BME280;67013;49.730;17.292;2023-03-31T10:43:32;97207.99;;;14.70;59.67
77823;BME280;67013;49.730;17.292;2023-03-31T10:46:03;97210.05;;;14.66;59.88
77823;BME280;67013;49.730;17.292;2023-03-31T10:48:36;97207.55;;;14.60;60.12
77823;BME280;67013;49.730;17.292;2023-03-31T10:51:13;97209.08;;;14.52;60.40
77823;BME280;67013;49.730;17.292;2023-03-31T10:53:45;97204.30;;;14.43;60.93
77823;BME280;67013;49.730;17.292;2023-03-31T10:56:35;97201.67;;;14.35;61.48
77823;BME280;67013;49.730;17.292;2023-03-31T10:59:20;97202.67;;;14.24;61.91
77823;BME280;67013;49.730;17.292;2023-03-31T11:02:03;97198.79;;;14.14;62.45
77823;BME280;67013;49.730;17.292;2023-03-31T11:04:47;97197.27;;;14.19;63.06
77823;BME280;67013;49.730;17.292;2023-03-31T11:07:34;97189.61;;;14.38;62.83
77823;BME280;67013;49.730;17.292;2023-03-31T11:10:31;97181.51;;;14.63;61.79
77823;BME280;67013;49.730;17.292;2023-03-31T11:13:06;97174.48;;;14.75;61.55
77823;BME280;67013;49.730;17.292;2023-03-31T11:15:44;97167.93;;;14.80;61.56
77823;BME280;67013;49.730;17.292;2023-03-31T11:18:31;97170.52;;;14.87;61.07
77823;BME280;67013;49.730;17.292;2023-03-31T11:21:11;97156.22;;;14.93;61.39
77823;BME280;67013;49.730;17.292;2023-03-31T11:23:51;97155.63;;;14.92;61.18
77823;BME280;67013;49.730;17.292;2023-03-31T11:26:31;97150.83;;;14.87;61.10
77823;BME280;67013;49.730;17.292;2023-03-31T11:29:18;97149.88;;;14.87;61.59
77823;BME280;67013;49.730;17.292;2023-03-31T11:31:54;97149.63;;;14.86;62.23
77823;BME280;67013;49.730;17.292;2023-03-31T11:34:39;97151.16;;;14.78;62.76
77823;BME280;67013;49.730;17.292;2023-03-31T11:37:37;97148.70;;;14.68;63.31
77823;BME280;67013;49.730;17.292;2023-03-31T11:40:22;97145.05;;;14.52;63.81
77823;BME280;67013;49.730;17.292;2023-03-31T11:43:00;97139.20;;;14.40;64.26
77823;BME280;67013;49.730;17.292;2023-03-31T11:45:34;97134.87;;;14.33;64.97
77823;BME280;67013;49.730;17.292;2023-03-31T11:48:13;97132.80;;;14.28;65.38
77823;BME280;67013;49.730;17.292;2023-03-31T11:50:46;97127.84;;;14.21;65.62
77823;BME280;67013;49.730;17.292;2023-03-31T11:53:18;97123.98;;;14.14;65.84
77823;BME280;67013;49.730;17.292;2023-03-31T11:55:51;97127.52;;;14.07;66.27
77823;BME280;67013;49.730;17.292;2023-03-31T11:58:25;97122.94;;;13.98;66.38
77823;BME280;67013;49.730;17.292;2023-03-31T12:01:02;97119.53;;;13.89;66.86
77823;BME280;67013;49.730;17.292;2023-03-31T12:03:40;97119.25;;;13.72;67.71
77823;BME280;67013;49.730;17.292;2023-03-31T12:06:14;97119.69;;;13.55;68.71
77823;BME280;67013;49.730;17.292;2023-03-31T12:08:52;97126.41;;;13.37;69.28
77823;BME280;67013;49.730;17.292;2023-03-31T12:11:30;97122.41;;;13.20;70.55
77823;BME280;67013;49.730;17.292;2023-03-31T12:14:07;97125.66;;;13.05;71.14
77823;BME280;67013;49.730;17.292;2023-03-31T12:16:42;97124.42;;;12.94;71.78
77823;BME280;67013;49.730;17.292;2023-03-31T12:19:16;97119.09;;;12.85;72.78
77823;BME280;67013;49.730;17.292;2023-03-31T12:21:50;97114.95;;;12.76;73.23
77823;BME280;67013;49.730;17.292;2023-03-31T12:24:21;97104.84;;;12.68;72.90
77823;BME280;67013;49.730;17.292;2023-03-31T12:26:58;97104.29;;;12.64;73.10
77823;BME280;67013;49.730;17.292;2023-03-31T12:29:35;97099.65;;;12.56;73.05
77823;BME280;67013;49.730;17.292;2023-03-31T12:32:09;97097.88;;;12.51;72.97
77823;BME280;67013;49.730;17.292;2023-03-31T12:34:44;97089.05;;;12.47;73.34
77823;BME280;67013;49.730;17.292;2023-03-31T12:37:28;97084.67;;;12.44;73.21
77823;BME280;67013;49.730;17.292;2023-03-31T12:40:09;97071.71;;;12.41;73.69
77823;BME280;67013;49.730;17.292;2023-03-31T12:43:04;97064.42;;;12.38;73.81
77823;BME280;67013;49.730;17.292;2023-03-31T12:45:40;97059.20;;;12.35;73.85
77823;BME280;67013;49.730;17.292;2023-03-31T12:48:28;97057.30;;;12.37;74.20
77823;BME280;67013;49.730;17.292;2023-03-31T12:51:03;97055.48;;;12.38;74.30
77823;BME280;67013;49.730;17.292;2023-03-31T12:53:43;97050.28;;;12.36;74.80
77823;BME280;67013;49.730;17.292;2023-03-31T12:56:18;97046.35;;;12.32;74.80
77823;BME280;67013;49.730;17.292;2023-03-31T12:58:48;97038.56;;;12.30;74.52
77823;BME280;67013;49.730;17.292;2023-03-31T13:01:19;97032.61;;;12.28;74.30
77823;BME280;67013;49.730;17.292;2023-03-31T13:03:52;97025.28;;;12.28;74.14
77823;BME280;67013;49.730;17.292;2023-03-31T13:06:54;97018.69;;;12.28;73.94
77823;BME280;67013;49.730;17.292;2023-03-31T13:09:44;97016.63;;;12.28;73.89
77823;BME280;67013;49.730;17.292;2023-03-31T13:12:14;97016.09;;;12.31;73.74
77823;BME280;67013;49.730;17.292;2023-03-31T13:14:46;97011.11;;;12.32;73.58
77823;BME280;67013;49.730;17.292;2023-03-31T13:17:30;97010.20;;;12.34;73.63
77823;BME280;67013;49.730;17.292;2023-03-31T13:20:23;97007.95;;;12.35;73.18
77823;BME280;67013;49.730;17.292;2023-03-31T13:23:02;97001.13;;;12.36;72.48
77823;BME280;67013;49.730;17.292;2023-03-31T13:25:40;96994.27;;;12.36;71.29
77823;BME280;67013;49.730;17.292;2023-03-31T13:28:15;96991.18;;;12.40;71.46
77823;BME280;67013;49.730;17.292;2023-03-31T13:30:51;96984.48;;;12.44;71.47
77823;BME280;67013;49.730;17.292;2023-03-31T13:33:24;96978.30;;;12.48;71.35